Time;durP1;ratioP1;P1;durP2;ratioP2;P2;SDS_P1;SDS_P2;PMS_P1;PMS_P2;Temp;Humidity;BMP_temperature;BMP_pressure;BME280_temperature;BME280_humidity;BME280_pressure;Samples;Min_cycle;Max_cycle;Signal;HPM_P1;HPM_P2
2021/03/04 00:00:02;;;;;;;84.20;42.75;;;;;;;7.67;39.41;101680.41;4906621;28;96932;-74
2021/03/04 00:02:36;;;;;;;79.10;42.03;;;;;;;7.64;39.47;101682.88;4910275;28;99056;-74
2021/03/04 00:05:04;;;;;;;78.50;40.92;;;;;;;7.62;39.44;101681.03;4903464;28;99994;-75
2021/03/04 00:07:31;;;;;;;80.70;42.08;;;;;;;7.56;39.92;101683.38;4895461;28;96805;-74
2021/03/04 00:09:58;;;;;;;77.15;41.83;;;;;;;7.52;39.79;101676.09;4915012;28;96825;-74
2021/03/04 00:12:25;;;;;;;77.95;40.80;;;;;;;7.47;39.65;101683.84;4930143;28;97224;-74
2021/03/04 00:14:52;;;;;;;73.90;41.90;;;;;;;7.47;39.84;101686.50;4909309;28;100344;-74
2021/03/04 00:17:39;;;;;;;77.55;42.35;;;;;;;7.49;39.80;101678.63;4908058;28;97204;-76
2021/03/04 00:20:08;;;;;;;77.35;42.63;;;;;;;7.52;39.48;101674.38;4929964;28;97420;-75
2021/03/04 00:22:35;;;;;;;80.63;42.08;;;;;;;7.52;39.45;101671.72;4912154;28;100418;-75
2021/03/04 00:25:02;;;;;;;79.10;40.78;;;;;;;7.54;39.73;101677.09;4905472;28;101137;-75
2021/03/04 00:27:29;;;;;;;80.65;43.15;;;;;;;7.53;39.31;101676.19;4909951;28;97117;-75
2021/03/04 00:29:56;;;;;;;80.32;39.95;;;;;;;7.54;39.62;101670.06;4909871;28;97191;-74
2021/03/04 00:32:24;;;;;;;73.07;39.30;;;;;;;7.53;39.38;101670.00;4910975;28;99741;-74
2021/03/04 00:34:51;;;;;;;69.50;39.65;;;;;;;7.52;39.27;101660.22;4930485;28;97628;-74
2021/03/04 00:37:18;;;;;;;76.53;39.05;;;;;;;7.52;39.37;101655.84;4916105;28;97039;-74
2021/03/04 00:39:45;;;;;;;84.55;42.20;;;;;;;7.47;39.37;101657.38;4907722;28;96980;-74
2021/03/04 00:42:12;;;;;;;77.95;40.92;;;;;;;7.46;39.48;101654.63;4920981;28;98371;-73
2021/03/04 00:44:38;;;;;;;74.32;41.22;;;;;;;7.46;39.88;101650.25;4928265;28;98160;-73
2021/03/04 00:47:06;;;;;;;76.28;41.33;;;;;;;7.45;39.42;101653.75;4905105;28;97585;-73
2021/03/04 00:49:33;;;;;;;72.55;39.45;;;;;;;7.43;39.45;101644.81;4926250;28;97141;-73
2021/03/04 00:52:01;;;;;;;75.40;40.03;;;;;;;7.40;39.22;101647.25;4917294;28;98809;-73
2021/03/04 00:54:29;;;;;;;73.68;39.35;;;;;;;7.36;39.55;101653.28;4908591;28;96996;-74
2021/03/04 00:56:56;;;;;;;79.40;39.15;;;;;;;7.36;39.69;101644.41;4895014;28;97687;-73
2021/03/04 00:59:23;;;;;;;84.07;42.95;;;;;;;7.37;39.52;101644.47;4915423;28;97150;-72
2021/03/04 01:01:50;;;;;;;71.88;39.10;;;;;;;7.33;39.72;101653.09;4919422;28;100008;-74
2021/03/04 01:04:18;;;;;;;71.93;40.00;;;;;;;7.31;39.60;101644.16;4909167;28;97711;-73
2021/03/04 01:06:45;;;;;;;82.78;40.90;;;;;;;7.26;39.86;101645.69;4906041;28;97722;-73
2021/03/04 01:09:12;;;;;;;68.90;38.65;;;;;;;7.27;39.57;101646.63;4908525;28;97233;-73
2021/03/04 01:11:39;;;;;;;74.10;40.47;;;;;;;7.24;39.60;101645.63;4922927;28;98756;-73
2021/03/04 01:14:07;;;;;;;70.80;39.38;;;;;;;7.24;39.74;101640.34;4906660;28;99910;-73
2021/03/04 01:16:33;;;;;;;71.53;38.13;;;;;;;7.23;39.51;101641.19;4908208;28;96690;-73
2021/03/04 01:19:02;;;;;;;74.97;39.40;;;;;;;7.21;39.87;101639.28;4917830;28;97314;-73
2021/03/04 01:21:29;;;;;;;74.25;38.60;;;;;;;7.17;39.67;101630.28;4925759;28;96978;-73
2021/03/04 01:23:56;;;;;;;69.70;37.70;;;;;;;7.14;39.62;101629.25;4908212;28;97783;-73
2021/03/04 01:26:23;;;;;;;75.30;39.45;;;;;;;7.15;39.92;101636.34;4927704;28;97062;-73
2021/03/04 01:28:50;;;;;;;73.10;38.88;;;;;;;7.10;39.68;101625.53;4910343;28;97666;-73
2021/03/04 01:31:17;;;;;;;73.57;39.03;;;;;;;7.09;40.03;101625.47;4930133;28;97104;-73
2021/03/04 01:33:44;;;;;;;73.45;39.20;;;;;;;7.02;39.96;101624.25;4925825;28;98930;-73
2021/03/04 01:36:11;;;;;;;70.55;38.17;;;;;;;7.00;39.79;101625.00;4910426;28;96746;-73
2021/03/04 01:38:39;;;;;;;75.35;40.83;;;;;;;6.94;39.92;101620.31;4910039;28;96908;-74
2021/03/04 01:41:05;;;;;;;78.30;39.50;;;;;;;6.86;40.25;101610.19;4915038;28;100428;-73
2021/03/04 01:43:32;;;;;;;74.10;41.63;;;;;;;6.68;40.23;101615.50;4932684;28;97990;-73
2021/03/04 01:45:59;;;;;;;73.25;39.47;;;;;;;6.57;40.46;101605.19;4930392;28;97787;-73
2021/03/04 01:48:43;;;;;;;75.75;36.67;;;;;;;6.53;40.91;101605.88;4925716;28;96702;-73
2021/03/04 01:51:10;;;;;;;81.32;39.80;;;;;;;6.52;40.59;101604.06;4915130;28;99391;-73
2021/03/04 01:53:38;;;;;;;74.10;38.67;;;;;;;6.50;41.04;101605.72;4935206;28;98134;-73
2021/03/04 01:56:05;;;;;;;75.72;39.05;;;;;;;6.48;41.02;101608.28;4926095;28;97989;-72
2021/03/04 01:58:32;;;;;;;73.00;40.38;;;;;;;6.46;40.69;101607.31;4898466;28;96679;-73
2021/03/04 02:00:59;;;;;;;72.60;38.28;;;;;;;6.49;41.10;101609.22;4931722;28;97607;-73
2021/03/04 02:03:45;;;;;;;80.75;40.72;;;;;;;6.47;40.73;101595.00;4924892;28;97671;-74
2021/03/04 02:06:13;;;;;;;76.03;38.60;;;;;;;6.36;40.96;101577.69;4922545;28;97482;-74
2021/03/04 02:08:45;;;;;;;79.55;40.47;;;;;;;6.31;41.29;101584.44;4925114;28;96790;-74
2021/03/04 02:11:17;;;;;;;79.10;39.72;;;;;;;6.32;41.28;101583.63;4913331;28;99404;-74
2021/03/04 02:13:48;;;;;;;72.40;38.55;;;;;;;6.31;40.92;101579.16;4930205;28;97658;-73
2021/03/04 02:16:18;;;;;;;68.03;36.92;;;;;;;6.28;40.97;101571.09;4907469;28;96933;-75
2021/03/04 02:18:48;;;;;;;75.85;37.38;;;;;;;6.20;41.30;101571.56;4928031;28;96914;-74
2021/03/04 02:21:31;;;;;;;73.50;38.42;;;;;;;6.21;41.10;101567.22;4922400;28;98168;-74
2021/03/04 02:24:32;;;;;;;74.13;38.70;;;;;;;6.20;41.24;101565.38;4929583;28;99039;-74
2021/03/04 02:27:06;;;;;;;81.20;39.95;;;;;;;6.19;40.97;101553.94;4867911;28;96696;-74
2021/03/04 02:29:38;;;;;;;65.38;36.85;;;;;;;6.21;41.03;101546.06;4916693;28;97339;-74
2021/03/04 02:32:06;;;;;;;76.93;39.15;;;;;;;6.21;41.07;101551.34;4916593;28;100262;-74
2021/03/04 02:34:34;;;;;;;77.05;37.20;;;;;;;6.18;41.34;101561.75;4929317;28;99250;-74
2021/03/04 02:37:01;;;;;;;65.45;36.15;;;;;;;6.19;41.17;101551.28;4921380;28;96730;-74
2021/03/04 02:39:30;;;;;;;69.70;37.70;;;;;;;6.20;41.25;101546.88;4928150;28;96881;-74
2021/03/04 02:41:57;;;;;;;65.55;34.90;;;;;;;6.20;41.25;101539.88;4909634;28;99080;-74
2021/03/04 02:44:25;;;;;;;71.00;36.35;;;;;;;6.17;41.13;101534.44;4910215;28;99881;-74
2021/03/04 02:46:52;;;;;;;68.13;36.85;;;;;;;6.14;41.30;101533.38;4908469;28;98336;-74
2021/03/04 02:49:35;;;;;;;69.35;38.03;;;;;;;6.11;40.91;101527.91;4930312;28;96719;-74
2021/03/04 02:52:04;;;;;;;72.63;37.30;;;;;;;6.14;40.90;101531.63;4931743;28;97620;-74
2021/03/04 02:54:31;;;;;;;79.88;38.17;;;;;;;6.18;41.04;101533.59;4907371;28;99228;-75
2021/03/04 02:56:59;;;;;;;64.70;35.08;;;;;;;6.20;40.84;101529.28;4925117;28;97008;-75
2021/03/04 02:59:49;;;;;;;68.90;36.83;;;;;;;6.19;40.96;101532.78;4925503;28;97262;-75
2021/03/04 03:02:16;;;;;;;68.85;35.72;;;;;;;6.16;40.80;101527.31;4923923;28;98807;-74
2021/03/04 03:04:43;;;;;;;70.15;35.78;;;;;;;6.18;40.91;101530.94;4908130;28;100765;-74
2021/03/04 03:07:10;;;;;;;70.80;36.60;;;;;;;6.19;40.80;101531.88;4926902;28;97850;-74
2021/03/04 03:09:38;;;;;;;66.82;35.65;;;;;;;6.21;40.97;101532.84;4895097;28;96927;-74
2021/03/04 03:12:06;;;;;;;70.32;36.65;;;;;;;6.22;41.04;101532.00;4922965;28;97553;-74
2021/03/04 03:14:33;;;;;;;66.72;35.83;;;;;;;6.21;40.70;101532.84;4928162;28;96761;-74
2021/03/04 03:17:01;;;;;;;71.60;36.65;;;;;;;6.24;40.74;101533.91;4908671;28;96877;-74
2021/03/04 03:19:28;;;;;;;81.27;46.43;;;;;;;6.33;40.83;101524.66;4886423;28;657726;-74
2021/03/04 03:21:55;;;;;;;82.25;47.15;;;;;;;6.43;40.89;101530.50;4910413;28;98170;-74
2021/03/04 03:24:22;;;;;;;72.45;39.00;;;;;;;6.39;40.78;101530.25;4931050;28;99272;-74
2021/03/04 03:26:49;;;;;;;70.10;37.35;;;;;;;6.32;41.03;101525.50;4914104;28;96829;-74
2021/03/04 03:29:16;;;;;;;66.68;37.00;;;;;;;6.32;41.00;101533.41;4927264;28;96880;-74
2021/03/04 03:32:03;;;;;;;70.22;39.38;;;;;;;6.25;40.89;101535.72;4912309;28;98541;-75
2021/03/04 03:34:30;;;;;;;72.93;38.22;;;;;;;6.22;41.05;101539.94;4912137;28;97441;-74
2021/03/04 03:36:57;;;;;;;73.80;40.03;;;;;;;6.19;40.78;101543.34;4896227;28;97137;-73
2021/03/04 03:39:25;;;;;;;73.63;40.88;;;;;;;6.10;40.98;101542.84;4920566;28;97130;-73
2021/03/04 03:41:52;;;;;;;82.72;39.53;;;;;;;6.04;41.20;101542.56;4910371;28;99297;-73
2021/03/04 03:44:18;;;;;;;74.18;39.72;;;;;;;5.98;41.45;101533.41;4929267;28;97998;-74
2021/03/04 03:46:46;;;;;;;78.70;39.58;;;;;;;5.83;41.62;101540.56;4924365;28;96719;-73
2021/03/04 03:49:15;;;;;;;75.25;39.53;;;;;;;5.75;41.69;101529.59;4913513;28;96833;-74
2021/03/04 03:51:43;;;;;;;69.15;40.00;;;;;;;5.70;41.42;101539.00;4909668;28;100444;-73
2021/03/04 03:54:11;;;;;;;85.32;42.10;;;;;;;5.63;41.94;101531.56;4904224;28;98026;-73
2021/03/04 03:56:37;;;;;;;72.15;39.08;;;;;;;5.58;41.71;101532.16;4912124;28;96731;-73
2021/03/04 03:59:05;;;;;;;72.05;40.20;;;;;;;5.56;41.81;101542.63;4909434;28;97822;-73
2021/03/04 04:01:35;;;;;;;79.18;41.63;;;;;;;5.53;41.90;101554.75;4912200;28;98597;-74
2021/03/04 04:04:02;;;;;;;89.20;46.33;;;;;;;5.52;41.67;101545.03;4913903;28;98174;-74
2021/03/04 04:06:31;;;;;;;76.57;41.95;;;;;;;5.49;41.87;101540.50;4911368;28;96879;-74
2021/03/04 04:08:59;;;;;;;83.55;43.05;;;;;;;5.42;42.03;101541.00;4926196;28;96934;-74
2021/03/04 04:11:28;;;;;;;78.45;41.25;;;;;;;5.38;42.05;101535.44;4911518;28;99438;-72
2021/03/04 04:13:55;;;;;;;75.40;40.88;;;;;;;5.33;41.97;101526.38;4909644;28;97570;-72
2021/03/04 04:16:23;;;;;;;75.03;42.05;;;;;;;5.24;41.92;101529.44;4928588;28;96717;-74
2021/03/04 04:18:52;;;;;;;89.07;43.88;;;;;;;5.18;42.09;101524.75;4929750;28;96838;-73
2021/03/04 04:21:19;;;;;;;79.35;41.22;;;;;;;5.11;42.12;101526.97;4923993;28;98720;-73
2021/03/04 04:23:47;;;;;;;84.20;43.05;;;;;;;5.06;42.17;101526.69;4911883;28;98301;-73
2021/03/04 04:26:14;;;;;;;83.65;41.72;;;;;;;4.95;42.22;101524.28;4928756;28;96962;-72
2021/03/04 04:28:41;;;;;;;80.07;42.60;;;;;;;4.81;42.40;101525.25;4917597;28;96663;-73
2021/03/04 04:31:08;;;;;;;81.22;42.63;;;;;;;4.71;42.48;101530.81;4919089;28;97791;-73
2021/03/04 04:33:35;;;;;;;81.50;41.67;;;;;;;4.62;42.62;101527.66;4892926;28;98477;-73
2021/03/04 04:36:02;;;;;;;85.18;43.17;;;;;;;4.49;42.97;101538.31;4910061;28;97060;-73
2021/03/04 04:38:29;;;;;;;86.75;43.22;;;;;;;4.42;42.67;101539.69;4927687;28;96873;-73
2021/03/04 04:40:57;;;;;;;87.25;42.75;;;;;;;4.32;42.80;101536.44;4931801;28;97578;-73
2021/03/04 04:43:24;;;;;;;80.57;42.05;;;;;;;4.23;43.07;101537.72;4925714;28;98877;-73
2021/03/04 04:45:51;;;;;;;84.55;43.25;;;;;;;4.21;43.27;101528.81;4916438;28;96866;-73
2021/03/04 04:48:19;;;;;;;86.57;41.30;;;;;;;4.19;42.78;101546.25;4918634;28;96786;-73
2021/03/04 04:51:06;;;;;;;84.20;42.10;;;;;;;4.14;43.23;101531.91;4926466;28;99803;-74
2021/03/04 04:53:34;;;;;;;83.45;42.38;;;;;;;4.13;42.94;101523.94;4928688;28;97498;-74
2021/03/04 04:56:03;;;;;;;84.90;41.70;;;;;;;4.10;42.90;101523.72;4912452;28;97218;-74
2021/03/04 04:58:29;;;;;;;85.07;39.25;;;;;;;4.10;43.10;101527.28;4929303;28;97364;-76
2021/03/04 05:00:56;;;;;;;85.20;40.28;;;;;;;4.09;43.20;101517.56;4901157;28;100048;-73
2021/03/04 05:03:23;;;;;;;93.82;42.00;;;;;;;4.07;43.12;101519.19;4906702;28;99953;-73
2021/03/04 05:05:51;;;;;;;92.70;39.63;;;;;;;4.06;43.21;101524.38;4925040;28;96677;-73
2021/03/04 05:08:17;;;;;;;124.95;61.35;;;;;;;3.99;43.00;101515.19;4892735;28;97110;-73
2021/03/04 05:10:44;;;;;;;85.10;43.45;;;;;;;3.98;43.63;101517.75;4898407;28;99497;-73
2021/03/04 05:13:12;;;;;;;88.78;40.38;;;;;;;3.99;43.19;101512.56;4913642;28;99749;-74
2021/03/04 05:15:39;;;;;;;85.53;37.97;;;;;;;4.01;43.36;101503.03;4910152;28;97719;-73
2021/03/04 05:18:06;;;;;;;88.03;37.08;;;;;;;3.96;43.23;101499.22;4934045;28;96812;-73
2021/03/04 05:20:33;;;;;;;91.65;40.28;;;;;;;3.93;43.58;101498.16;4931837;28;99439;-73
2021/03/04 05:23:00;;;;;;;97.40;39.83;;;;;;;3.94;43.50;101489.41;4933345;28;97550;-74
2021/03/04 05:25:28;;;;;;;90.90;37.90;;;;;;;3.93;43.43;101493.75;4910963;28;97035;-72
2021/03/04 05:27:54;;;;;;;92.25;39.03;;;;;;;3.89;43.57;101490.88;4923833;28;96923;-73
2021/03/04 05:30:23;;;;;;;89.78;37.28;;;;;;;3.85;43.45;101495.06;4930586;28;97587;-73
2021/03/04 05:32:49;;;;;;;94.10;40.65;;;;;;;3.83;43.21;101498.41;4909194;28;101243;-73
2021/03/04 05:35:16;;;;;;;88.53;36.55;;;;;;;3.83;43.32;101485.22;4923964;28;98431;-73
2021/03/04 05:37:43;;;;;;;86.63;35.95;;;;;;;3.82;43.22;101486.97;4930135;28;97514;-72
2021/03/04 05:40:12;;;;;;;85.55;37.08;;;;;;;3.84;43.48;101482.69;4928897;28;97812;-72
2021/03/04 05:42:42;;;;;;;83.90;34.53;;;;;;;3.81;43.20;101485.16;4927521;28;98945;-73
2021/03/04 05:45:11;;;;;;;83.53;34.47;;;;;;;3.83;43.28;101479.97;4909259;28;97324;-73
2021/03/04 05:47:43;;;;;;;84.60;36.10;;;;;;;3.83;43.47;101478.25;4926796;28;97314;-74
2021/03/04 05:50:13;;;;;;;82.22;35.58;;;;;;;3.78;43.60;101473.53;4922104;28;100615;-74
2021/03/04 05:52:42;;;;;;;81.05;35.08;;;;;;;3.77;43.52;101469.09;4895207;28;100659;-73
2021/03/04 05:55:12;;;;;;;78.53;32.15;;;;;;;3.75;43.41;101476.88;4921610;28;98225;-73
2021/03/04 05:57:39;;;;;;;76.30;33.85;;;;;;;3.74;43.82;101471.53;4929648;28;97098;-73
2021/03/04 06:00:07;;;;;;;76.43;32.67;;;;;;;3.70;43.56;101472.16;4915061;28;98672;-73
2021/03/04 06:02:36;;;;;;;77.07;33.67;;;;;;;3.66;43.43;101481.59;4931527;28;98451;-74
2021/03/04 06:05:05;;;;;;;74.72;32.47;;;;;;;3.57;43.61;101480.13;4918146;28;97052;-74
2021/03/04 06:07:32;;;;;;;77.53;34.40;;;;;;;3.52;43.67;101481.56;4935970;28;96933;-74
2021/03/04 06:09:59;;;;;;;71.15;32.13;;;;;;;3.48;43.75;101483.09;4923511;28;98965;-74
2021/03/04 06:12:29;;;;;;;74.28;32.53;;;;;;;3.44;43.84;101478.44;4918557;28;99236;-74
2021/03/04 06:14:55;;;;;;;79.03;32.67;;;;;;;3.41;43.46;101475.66;4911967;28;96872;-74
2021/03/04 06:17:22;;;;;;;77.70;32.80;;;;;;;3.39;43.79;101472.00;4915955;28;97146;-74
2021/03/04 06:19:52;;;;;;;80.63;33.65;;;;;;;3.35;43.60;101479.66;4911212;28;100482;-73
2021/03/04 06:22:26;;;;;;;74.10;33.88;;;;;;;3.29;43.66;101481.88;4922080;28;98362;-74
2021/03/04 06:24:54;;;;;;;72.57;31.98;;;;;;;3.23;44.08;101487.69;4916487;28;96787;-74
2021/03/04 06:27:29;;;;;;;72.72;31.95;;;;;;;3.17;44.19;101488.22;4928496;28;97547;-74
2021/03/04 06:29:57;;;;;;;76.55;31.48;;;;;;;3.18;43.89;101489.13;4930886;28;99250;-74
2021/03/04 06:32:24;;;;;;;78.88;30.98;;;;;;;3.24;43.99;101490.41;4920958;28;100553;-74
2021/03/04 06:35:05;;;;;;;78.55;32.72;;;;;;;3.24;44.09;101489.47;4929594;28;97174;-74
2021/03/04 06:37:34;;;;;;;79.20;31.25;;;;;;;3.32;43.32;101492.59;4902848;28;98150;-74
2021/03/04 06:40:02;;;;;;;78.75;32.70;;;;;;;3.25;43.54;101491.31;4904506;28;99316;-74
2021/03/04 06:42:39;;;;;;;81.13;32.53;;;;;;;3.08;44.44;101492.91;4929963;28;96978;-73
2021/03/04 06:45:07;;;;;;;76.10;31.38;;;;;;;3.03;43.44;101480.28;4910665;28;97305;-74
2021/03/04 06:47:34;;;;;;;82.72;32.72;;;;;;;3.00;43.69;101496.75;4909720;28;97296;-73
2021/03/04 06:50:01;;;;;;;83.35;33.60;;;;;;;2.94;44.32;101495.47;4925974;28;98004;-73
2021/03/04 06:52:45;;;;;;;75.75;31.30;;;;;;;2.87;44.63;101501.16;4905193;28;98911;-74
2021/03/04 06:55:14;;;;;;;76.80;32.65;;;;;;;2.85;44.26;101505.41;4926137;28;96776;-74
2021/03/04 06:57:58;;;;;;;77.25;31.13;;;;;;;2.86;43.88;101509.84;4908983;28;99402;-73
2021/03/04 07:00:26;;;;;;;78.70;30.52;;;;;;;2.83;43.60;101507.03;4893008;28;101021;-74
2021/03/04 07:02:53;;;;;;;74.50;30.27;;;;;;;2.84;43.91;101500.94;4919346;28;99964;-73
2021/03/04 07:05:21;;;;;;;80.45;31.65;;;;;;;2.86;44.23;101501.94;4915171;28;99298;-74
2021/03/04 07:07:51;;;;;;;77.43;30.75;;;;;;;2.88;43.97;101497.72;4918693;28;98675;-75
2021/03/04 07:10:20;;;;;;;82.75;32.50;;;;;;;2.93;43.86;101491.03;4900784;28;100191;-74
2021/03/04 07:12:47;;;;;;;80.47;32.20;;;;;;;2.96;44.02;101497.41;4921435;28;97648;-74
2021/03/04 07:15:16;;;;;;;77.40;31.80;;;;;;;3.02;43.82;101508.28;4901199;28;97058;-74
2021/03/04 07:17:44;;;;;;;77.28;30.70;;;;;;;3.02;44.07;101500.38;4919673;28;99006;-74
2021/03/04 07:20:15;;;;;;;86.47;32.03;;;;;;;3.10;43.86;101492.97;4918870;28;99789;-73
2021/03/04 07:23:03;;;;;;;78.95;31.08;;;;;;;3.09;43.35;101492.06;4903571;28;98238;-73
2021/03/04 07:25:32;;;;;;;91.30;33.70;;;;;;;3.08;43.79;101491.97;4923987;28;97040;-74
2021/03/04 07:28:00;;;;;;;81.30;32.72;;;;;;;3.09;44.11;101483.28;4886709;28;97318;-74
2021/03/04 07:30:32;;;;;;;83.75;32.83;;;;;;;3.13;43.38;101493.19;4916273;28;100023;-74
2021/03/04 07:33:01;;;;;;;81.20;32.90;;;;;;;3.16;43.67;101493.38;4905419;28;98132;-75
2021/03/04 07:35:29;;;;;;;88.07;32.00;;;;;;;3.22;43.48;101496.41;4908897;28;98580;-74
2021/03/04 07:37:56;;;;;;;87.60;32.60;;;;;;;3.27;43.84;101494.03;4917677;28;97019;-74
2021/03/04 07:40:24;;;;;;;87.32;31.65;;;;;;;3.28;43.41;101486.22;4911635;28;96810;-73
2021/03/04 07:43:01;;;;;;;85.47;31.52;;;;;;;3.24;43.99;101489.47;4907503;28;99596;-74
2021/03/04 07:45:29;;;;;;;81.55;33.25;;;;;;;3.24;44.08;101484.22;4908169;28;97025;-74
2021/03/04 07:48:07;;;;;;;87.28;33.05;;;;;;;3.27;44.32;101489.69;4910273;28;96818;-75
2021/03/04 07:50:34;;;;;;;81.35;31.23;;;;;;;3.22;43.95;101483.25;4925137;28;100183;-74
2021/03/04 07:53:14;;;;;;;84.50;31.15;;;;;;;3.20;43.91;101487.50;4909163;28;99281;-74
2021/03/04 07:55:42;;;;;;;89.03;31.52;;;;;;;3.18;43.67;101483.88;4896694;28;97438;-73
2021/03/04 07:58:14;;;;;;;78.28;32.13;;;;;;;3.13;44.10;101480.94;4930950;28;96873;-73
2021/03/04 08:00:41;;;;;;;80.50;31.40;;;;;;;3.11;43.66;101482.56;4926924;28;96847;-74
2021/03/04 08:03:08;;;;;;;113.93;45.10;;;;;;;3.22;44.44;101485.88;4924754;28;99009;-74
2021/03/04 08:05:36;;;;;;;83.78;34.83;;;;;;;3.17;44.37;101482.03;4923494;28;97450;-75
2021/03/04 08:08:11;;;;;;;89.32;32.10;;;;;;;3.11;44.55;101479.03;4923302;28;96772;-74
2021/03/04 08:10:53;;;;;;;86.72;31.67;;;;;;;3.13;44.48;101485.31;4908399;28;98574;-73
2021/03/04 08:13:29;;;;;;;73.28;29.95;;;;;;;3.10;44.61;101471.94;4927018;28;99550;-73
2021/03/04 08:15:56;;;;;;;75.53;29.38;;;;;;;3.08;44.34;101473.56;4920743;28;97121;-74
2021/03/04 08:18:25;;;;;;;77.60;28.83;;;;;;;3.10;44.36;101474.56;4923376;28;96844;-73
2021/03/04 08:20:54;;;;;;;75.63;30.05;;;;;;;3.11;44.66;101472.03;4903576;28;99219;-74
2021/03/04 08:23:21;;;;;;;75.53;28.25;;;;;;;3.08;44.52;101469.22;4929358;28;97856;-73
2021/03/04 08:25:49;;;;;;;78.35;29.92;;;;;;;3.14;43.99;101473.97;4913678;28;97060;-74
2021/03/04 08:28:24;;;;;;;90.03;31.67;;;;;;;3.11;44.73;101472.03;4912085;28;96965;-74
2021/03/04 08:30:51;;;;;;;83.22;30.23;;;;;;;3.22;43.94;101470.97;4903247;28;101230;-74
2021/03/04 08:33:18;;;;;;;78.28;29.58;;;;;;;3.27;44.32;101467.72;4921073;28;97564;-75
2021/03/04 08:35:46;;;;;;;84.75;28.88;;;;;;;3.18;44.13;101462.81;4909256;28;96686;-73
2021/03/04 08:38:16;;;;;;;80.00;29.60;;;;;;;3.19;44.18;101464.63;4922389;28;98013;-75
2021/03/04 08:40:45;;;;;;;81.75;29.77;;;;;;;3.20;44.58;101456.81;4908616;28;100285;-75
2021/03/04 08:43:14;;;;;;;90.60;30.73;;;;;;;3.24;44.04;101455.28;4926271;28;100928;-74
2021/03/04 08:45:41;;;;;;;80.18;29.95;;;;;;;3.30;43.98;101442.53;4919993;28;97125;-74
2021/03/04 08:48:10;;;;;;;87.32;31.10;;;;;;;3.36;44.17;101442.91;4927709;28;100454;-73
2021/03/04 08:50:39;;;;;;;83.13;30.05;;;;;;;3.38;44.28;101441.28;4929069;28;98766;-73
2021/03/04 08:53:11;;;;;;;80.35;30.00;;;;;;;3.38;44.29;101441.28;4908602;28;99148;-73
2021/03/04 08:55:47;;;;;;;88.55;31.17;;;;;;;3.40;44.50;101434.38;4923151;28;97933;-74
2021/03/04 08:58:16;;;;;;;89.10;31.80;;;;;;;3.46;44.04;101436.47;4925917;28;96987;-73
2021/03/04 09:00:49;;;;;;;89.05;29.42;;;;;;;3.48;43.99;101438.38;4921510;28;99556;-73
2021/03/04 09:03:20;;;;;;;95.90;33.47;;;;;;;3.48;43.44;101429.59;4902330;28;99031;-74
2021/03/04 09:05:48;;;;;;;100.65;34.40;;;;;;;3.47;43.89;101431.31;4922416;28;97133;-73
2021/03/04 09:08:16;;;;;;;92.90;32.83;;;;;;;3.51;43.98;101429.75;4920067;28;96955;-75
2021/03/04 09:10:45;;;;;;;96.55;33.30;;;;;;;3.56;43.48;101430.94;4927806;28;96703;-75
2021/03/04 09:13:24;;;;;;;88.95;33.25;;;;;;;3.61;44.06;101430.38;4914137;28;96923;-73
2021/03/04 09:15:54;;;;;;;90.03;31.38;;;;;;;3.69;43.78;101439.69;4924651;28;97379;-73
2021/03/04 09:18:22;;;;;;;88.85;30.15;;;;;;;3.69;43.58;101439.69;4917090;28;97017;-73
2021/03/04 09:20:51;;;;;;;92.03;31.95;;;;;;;3.70;43.90;101452.03;4903573;28;97343;-73
2021/03/04 09:23:18;;;;;;;101.28;33.80;;;;;;;3.73;43.37;101446.03;4925129;28;97369;-73
2021/03/04 09:25:46;;;;;;;89.97;34.83;;;;;;;3.70;43.51;101441.50;4931213;28;97286;-72
2021/03/04 09:28:14;;;;;;;104.93;38.47;;;;;;;3.70;43.96;101437.94;4921028;28;97093;-72
2021/03/04 09:30:42;;;;;;;81.57;29.55;;;;;;;3.69;43.49;101436.16;4931620;28;97827;-73
2021/03/04 09:33:20;;;;;;;74.63;28.30;;;;;;;3.67;44.02;101435.16;4915091;28;99760;-73
2021/03/04 09:35:58;;;;;;;80.78;27.30;;;;;;;3.70;43.79;101432.69;4906766;28;96873;-74
2021/03/04 09:38:25;;;;;;;76.85;28.45;;;;;;;3.70;43.92;101438.88;4911054;28;97882;-74
2021/03/04 09:41:09;;;;;;;81.60;27.48;;;;;;;3.73;43.92;101431.13;4924496;28;97877;-74
2021/03/04 09:43:40;;;;;;;70.32;26.85;;;;;;;3.69;44.09;101439.69;4924022;28;99408;-74
2021/03/04 09:46:24;;;;;;;74.22;26.35;;;;;;;3.66;43.83;101439.50;4893431;28;97891;-74
2021/03/04 09:48:52;;;;;;;70.32;25.85;;;;;;;3.56;44.21;101437.13;4925244;28;97327;-74
2021/03/04 09:51:30;;;;;;;75.80;27.55;;;;;;;3.50;44.08;101439.38;4926410;28;97909;-74
2021/03/04 09:53:58;;;;;;;72.15;27.38;;;;;;;3.45;43.96;101439.91;4926227;28;97051;-74
2021/03/04 09:56:25;;;;;;;69.22;26.80;;;;;;;3.39;44.20;101443.06;4921849;28;97987;-74
2021/03/04 09:58:53;;;;;;;76.00;26.77;;;;;;;3.35;44.08;101438.44;4924700;28;97016;-74
2021/03/04 10:01:28;;;;;;;70.43;25.10;;;;;;;3.33;44.70;101444.44;4913174;28;100574;-74
2021/03/04 10:04:00;;;;;;;73.22;26.38;;;;;;;3.37;43.99;101438.56;4911052;28;97596;-74
2021/03/04 10:06:32;;;;;;;67.45;25.23;;;;;;;3.41;43.81;101433.56;4912883;28;97430;-70
2021/03/04 10:09:00;;;;;;;70.82;24.98;;;;;;;3.49;43.92;101429.69;4923780;28;97077;-71
2021/03/04 10:11:28;;;;;;;55.58;23.88;;;;;;;3.50;43.98;101431.47;4921154;28;98551;-71
2021/03/04 10:13:55;;;;;;;60.20;21.83;;;;;;;3.52;44.25;101426.28;4895314;28;100067;-72
2021/03/04 10:16:21;;;;;;;68.97;23.35;;;;;;;3.46;43.75;101432.09;4911073;28;96840;-71
2021/03/04 10:18:50;;;;;;;65.55;22.95;;;;;;;3.40;44.41;101423.88;4930162;28;96797;-71
2021/03/04 10:21:18;;;;;;;61.95;22.50;;;;;;;3.40;44.30;101428.22;4911037;28;99177;-75
2021/03/04 10:23:47;;;;;;;59.92;23.27;;;;;;;3.40;44.27;101426.50;4912104;28;100063;-74
2021/03/04 10:26:14;;;;;;;55.53;22.50;;;;;;;3.37;44.01;101436.81;4911933;28;96874;-75
2021/03/04 10:28:41;;;;;;;62.00;23.40;;;;;;;3.37;44.64;101428.03;4925904;28;97655;-75
2021/03/04 10:31:09;;;;;;;77.72;24.98;;;;;;;3.34;44.66;101434.00;4914867;28;98198;-74
2021/03/04 10:33:36;;;;;;;59.83;23.60;;;;;;;3.30;44.28;101431.09;4930467;28;97832;-75
2021/03/04 10:36:05;;;;;;;64.10;22.90;;;;;;;3.28;44.08;101430.13;4901573;28;97329;-75
2021/03/04 10:38:32;;;;;;;64.40;23.92;;;;;;;3.25;43.97;101428.19;4898421;28;97385;-75
2021/03/04 10:40:59;;;;;;;68.55;23.98;;;;;;;3.29;44.16;101422.31;4928927;28;98012;-75
2021/03/04 10:43:27;;;;;;;61.92;22.85;;;;;;;3.36;44.38;101418.31;4932126;28;100181;-75
2021/03/04 10:45:54;;;;;;;56.50;21.83;;;;;;;3.40;43.83;101418.59;4911919;28;96981;-75
2021/03/04 10:48:22;;;;;;;61.17;22.15;;;;;;;3.43;43.98;101421.41;4922389;28;97409;-75
2021/03/04 10:50:50;;;;;;;66.32;23.88;;;;;;;3.44;44.30;101419.69;4912128;28;98942;-74
2021/03/04 10:53:18;;;;;;;56.83;23.15;;;;;;;3.38;44.52;101420.22;4897529;28;99618;-75
2021/03/04 10:55:44;;;;;;;70.70;22.17;;;;;;;3.32;44.45;101417.22;4915376;28;97301;-74
2021/03/04 10:58:12;;;;;;;70.38;24.02;;;;;;;3.33;43.64;101413.75;4904720;28;96920;-74
2021/03/04 11:00:41;;;;;;;59.58;22.02;;;;;;;3.36;44.26;101424.50;4923435;28;97823;-74
2021/03/04 11:03:08;;;;;;;59.90;22.83;;;;;;;3.37;44.20;101417.50;4904388;28;98147;-74
2021/03/04 11:05:35;;;;;;;60.47;21.02;;;;;;;3.41;43.77;101414.22;4922871;28;98158;-74
2021/03/04 11:08:03;;;;;;;54.83;21.98;;;;;;;3.42;43.83;101424.88;4920689;28;97191;-74
2021/03/04 11:10:30;;;;;;;60.08;22.27;;;;;;;3.39;43.96;101426.38;4926713;28;97584;-75
2021/03/04 11:13:16;;;;;;;56.35;21.13;;;;;;;3.34;44.03;101434.00;4920545;28;97283;-75
2021/03/04 11:15:43;;;;;;;55.10;20.23;;;;;;;3.29;44.27;101445.97;4922516;28;98330;-76
2021/03/04 11:18:11;;;;;;;54.47;20.33;;;;;;;3.28;44.18;101443.25;4907144;28;96826;-75
2021/03/04 11:20:58;;;;;;;49.42;20.70;;;;;;;3.27;44.41;101436.16;4904167;28;99321;-75
2021/03/04 11:23:24;;;;;;;43.45;17.83;;;;;;;3.31;43.86;101432.91;4925097;28;98285;-74
2021/03/04 11:26:00;;;;;;;43.78;18.45;;;;;;;3.34;44.27;101434.00;4921537;28;96636;-74